Time;durP1;ratioP1;P1;durP2;ratioP2;P2;SDS_P1;SDS_P2;PMS_P1;PMS_P2;Temp;Humidity;BMP_temperature;BMP_pressure;BME280_temperature;BME280_humidity;BME280_pressure;Samples;Min_cycle;Max_cycle;Signal;HPM_P1;HPM_P2
2022/04/18 00:02:07;;;;;;;5.20;2.40;;;12.60;36.90;;;;;;5055943;28;20485;-63
2022/04/18 00:04:33;;;;;;;5.70;2.35;;;12.60;36.70;;;;;;5056255;28;20053;-63
2022/04/18 00:07:03;;;;;;;5.70;2.25;;;12.60;37.00;;;;;;5056427;28;20041;-63
2022/04/18 00:09:33;;;;;;;3.80;2.47;;;12.50;36.90;;;;;;5055963;28;20041;-63
2022/04/18 00:12:00;;;;;;;4.95;2.40;;;12.50;36.50;;;;;;5055811;28;20041;-63
2022/04/18 00:14:25;;;;;;;3.97;2.35;;;12.40;36.40;;;;;;5055865;28;20033;-64
2022/04/18 00:16:51;;;;;;;3.67;2.53;;;12.40;36.70;;;;;;5055795;28;20036;-63
2022/04/18 00:19:17;;;;;;;4.00;2.35;;;12.40;36.70;;;;;;5055666;28;20087;-63
2022/04/18 00:21:42;;;;;;;7.30;2.35;;;12.40;36.70;;;;;;5056087;28;20080;-63
2022/04/18 00:24:11;;;;;;;3.15;2.00;;;12.40;36.90;;;;;;5055859;28;20033;-65
2022/04/18 00:26:42;;;;;;;4.28;2.25;;;12.30;36.90;;;;;;5055833;28;20029;-64
2022/04/18 00:29:07;;;;;;;5.45;2.40;;;12.30;37.10;;;;;;5055477;28;20120;-63
2022/04/18 00:31:33;;;;;;;5.70;2.70;;;12.30;36.60;;;;;;5055513;28;20072;-63
2022/04/18 00:33:59;;;;;;;5.35;2.28;;;12.30;36.90;;;;;;5055661;28;20064;-63
2022/04/18 00:36:24;;;;;;;8.35;2.33;;;12.30;36.80;;;;;;5054918;28;20069;-63
2022/04/18 00:38:50;;;;;;;4.18;2.20;;;12.20;36.60;;;;;;5055256;28;20043;-63
2022/04/18 00:41:16;;;;;;;4.25;2.60;;;12.30;36.70;;;;;;5055195;28;20124;-63
2022/04/18 00:43:44;;;;;;;4.65;2.42;;;12.20;36.80;;;;;;5055480;28;20401;-63
2022/04/18 00:46:11;;;;;;;8.02;2.28;;;12.20;37.20;;;;;;5055633;28;20036;-63
2022/04/18 00:48:37;;;;;;;4.65;2.33;;;12.20;37.30;;;;;;5055051;28;20095;-63
2022/04/18 00:51:04;;;;;;;4.28;2.30;;;12.20;37.20;;;;;;5055264;28;20087;-63
2022/04/18 00:53:32;;;;;;;4.15;1.88;;;12.10;37.20;;;;;;5055352;28;20029;-63
2022/04/18 00:55:58;;;;;;;4.38;2.20;;;12.10;37.20;;;;;;5054969;28;20119;-63
2022/04/18 00:58:24;;;;;;;4.55;2.40;;;12.10;36.80;;;;;;5053733;28;20424;-63
2022/04/18 01:00:50;;;;;;;5.97;2.72;;;12.10;36.70;;;;;;5051888;28;20049;-63
2022/04/18 01:03:15;;;;;;;6.22;2.20;;;12.10;36.70;;;;;;5052093;28;20080;-63
2022/04/18 01:05:41;;;;;;;4.28;2.30;;;12.10;36.90;;;;;;5054118;28;20033;-63
2022/04/18 01:08:07;;;;;;;4.47;2.22;;;12.10;37.30;;;;;;5054784;28;20029;-63
2022/04/18 01:10:33;;;;;;;4.85;2.47;;;12.10;37.00;;;;;;5054514;28;20579;-63
2022/04/18 01:12:59;;;;;;;4.47;2.47;;;12.10;36.20;;;;;;5054876;28;20047;-63
2022/04/18 01:15:24;;;;;;;4.68;2.63;;;12.10;36.50;;;;;;5055006;28;20354;-63
2022/04/18 01:17:50;;;;;;;4.75;2.45;;;12.10;36.50;;;;;;5054429;28;20048;-64
2022/04/18 01:20:16;;;;;;;7.75;2.33;;;12.10;36.40;;;;;;5054337;28;20032;-63
2022/04/18 01:22:44;;;;;;;4.32;2.30;;;12.10;36.20;;;;;;5054266;28;20049;-64
2022/04/18 01:30:38;;;;;;;3.10;2.30;;;12.10;36.50;;;;;;5054772;28;20040;-63
2022/04/18 01:33:04;;;;;;;5.70;2.33;;;12.00;36.70;;;;;;5054186;28;20036;-63
2022/04/18 01:35:30;;;;;;;4.40;2.25;;;12.00;36.80;;;;;;5053587;28;20048;-63
2022/04/18 01:37:56;;;;;;;5.85;2.30;;;12.00;36.70;;;;;;5054381;28;20158;-63
2022/04/18 01:40:22;;;;;;;6.20;2.20;;;12.00;36.80;;;;;;5054177;28;20040;-63
2022/04/18 01:42:47;;;;;;;5.07;2.30;;;12.00;37.10;;;;;;5053865;28;20382;-63
2022/04/18 01:45:13;;;;;;;5.90;2.22;;;12.00;37.10;;;;;;5053754;28;20033;-63
2022/04/18 01:47:39;;;;;;;6.18;2.50;;;12.00;37.20;;;;;;5053483;28;20033;-63
2022/04/18 01:50:05;;;;;;;3.15;2.28;;;11.90;37.40;;;;;;5053405;28;20036;-63
2022/04/18 01:52:30;;;;;;;4.47;2.35;;;11.90;37.60;;;;;;5054111;28;20055;-63
2022/04/18 01:54:56;;;;;;;3.28;2.05;;;11.80;37.50;;;;;;5053872;28;20473;-63
2022/04/18 01:57:22;;;;;;;3.80;2.35;;;11.80;37.90;;;;;;5053835;28;20038;-63
2022/04/18 01:59:47;;;;;;;5.90;2.10;;;11.80;37.40;;;;;;5053542;28;20037;-63
2022/04/18 02:02:13;;;;;;;4.20;2.60;;;11.80;36.80;;;;;;5053712;28;20056;-63
2022/04/18 02:04:39;;;;;;;4.28;2.30;;;11.80;37.10;;;;;;5053956;28;20099;-63
2022/04/18 02:07:05;;;;;;;9.25;3.10;;;11.80;36.90;;;;;;5053719;28;20107;-63
2022/04/18 02:09:30;;;;;;;5.95;2.53;;;11.70;36.70;;;;;;5054165;28;20064;-63
2022/04/18 16:18:10;;;;;;;7.18;3.17;;;18.70;35.20;;;;;;5039171;28;20094;-63
2022/04/18 16:20:36;;;;;;;7.38;3.60;;;18.70;36.60;;;;;;5055834;28;20045;-63
2022/04/18 16:23:01;;;;;;;7.32;3.83;;;18.60;36.50;;;;;;5056158;28;20367;-64
2022/04/18 16:25:29;;;;;;;7.53;3.65;;;18.50;35.50;;;;;;5055583;28;20087;-69
2022/04/18 16:27:54;;;;;;;7.18;3.40;;;18.40;36.00;;;;;;5055669;28;20107;-63
2022/04/18 16:33:04;;;;;;;6.10;3.42;;;18.40;37.30;;;;;;5055479;28;20036;-63
2022/04/18 16:35:33;;;;;;;8.77;3.60;;;18.40;37.50;;;;;;5055561;28;20052;-64
2022/04/18 16:37:58;;;;;;;10.82;3.88;;;18.40;37.30;;;;;;5055105;28;20037;-64
2022/04/18 16:40:24;;;;;;;7.80;4.00;;;18.30;36.70;;;;;;5054878;28;20394;-63
2022/04/18 16:45:49;;;;;;;6.20;3.50;;;18.30;37.10;;;;;;5055756;28;20044;-63
2022/04/18 16:48:19;;;;;;;7.60;3.47;;;18.30;36.10;;;;;;5055433;28;20382;-64
2022/04/18 16:50:46;;;;;;;7.28;3.30;;;18.20;36.20;;;;;;5055543;28;20059;-63
2022/04/18 16:53:11;;;;;;;5.32;3.55;;;18.20;36.90;;;;;;5055266;28;20541;-63
2022/04/18 16:55:37;;;;;;;7.45;3.80;;;18.10;36.90;;;;;;5055392;28;20104;-63
2022/04/18 16:58:04;;;;;;;5.32;3.38;;;18.10;36.10;;;;;;5055290;28;20037;-69
2022/04/18 17:00:30;;;;;;;8.35;3.67;;;18.10;36.50;;;;;;5054962;28;20033;-68
2022/04/18 17:02:55;;;;;;;13.48;3.35;;;18.00;36.40;;;;;;5054827;28;20098;-63
2022/04/18 17:05:21;;;;;;;5.15;3.00;;;18.00;36.70;;;;;;5054745;28;20033;-63
2022/04/18 17:07:47;;;;;;;5.53;3.42;;;18.00;36.80;;;;;;5054651;28;20076;-67
2022/04/18 17:10:13;;;;;;;6.97;3.20;;;18.00;37.50;;;;;;5054571;28;20033;-63
2022/04/18 17:12:39;;;;;;;8.85;3.25;;;17.90;37.70;;;;;;5054794;28;20434;-64
2022/04/18 17:15:06;;;;;;;13.45;3.05;;;17.90;37.50;;;;;;5054816;28;20037;-63
2022/04/18 17:17:32;;;;;;;5.18;2.83;;;17.90;38.10;;;;;;5051382;28;20048;-64
2022/04/18 17:19:57;;;;;;;10.90;3.15;;;17.80;38.80;;;;;;5051545;28;20037;-64
2022/04/18 17:22:23;;;;;;;7.40;3.08;;;17.80;38.40;;;;;;5052767;28;20041;-64
2022/04/18 17:24:49;;;;;;;8.18;3.70;;;17.70;38.40;;;;;;5054242;28;20125;-63
2022/04/18 17:27:14;;;;;;;5.25;2.75;;;17.70;39.00;;;;;;5054755;28;20048;-64
2022/04/18 17:29:40;;;;;;;5.80;3.00;;;17.70;39.60;;;;;;5054380;28;20493;-64
2022/04/18 17:32:07;;;;;;;5.60;2.90;;;17.60;39.30;;;;;;5053968;28;20108;-63
2022/04/18 17:34:33;;;;;;;8.98;3.50;;;17.60;38.80;;;;;;5053994;28;20478;-63
2022/04/18 17:36:58;;;;;;;7.80;3.67;;;17.50;38.20;;;;;;5054312;28;20450;-64
2022/04/18 17:39:24;;;;;;;9.10;3.40;;;17.40;38.50;;;;;;5054044;28;20112;-63
2022/04/18 17:41:50;;;;;;;10.63;3.40;;;17.40;38.60;;;;;;5054077;28;20036;-63
2022/04/18 17:44:18;;;;;;;12.52;3.50;;;17.30;38.30;;;;;;5054161;28;20040;-66
2022/04/18 17:46:43;;;;;;;7.82;3.22;;;17.20;38.90;;;;;;5053966;28;20124;-64
2022/04/18 17:49:09;;;;;;;8.73;3.63;;;17.20;38.50;;;;;;5054195;28;20112;-64
2022/04/18 17:51:35;;;;;;;5.68;3.17;;;17.10;38.80;;;;;;5054217;28;20521;-64
2022/04/18 17:56:44;;;;;;;7.63;2.80;;;17.00;39.20;;;;;;5054114;28;20437;-64
2022/04/18 17:59:10;;;;;;;5.75;2.70;;;17.00;39.10;;;;;;5053747;28;20037;-64
2022/04/18 18:01:36;;;;;;;7.30;3.38;;;16.90;40.00;;;;;;5053449;28;20083;-63
2022/04/18 18:04:02;;;;;;;4.97;2.72;;;16.90;40.00;;;;;;5053534;28;20037;-63
2022/04/18 18:06:28;;;;;;;5.13;2.92;;;16.90;40.30;;;;;;5053581;28;20395;-63
2022/04/18 18:08:53;;;;;;;4.93;3.20;;;16.90;40.70;;;;;;5050539;28;20048;-67
2022/04/18 18:11:19;;;;;;;8.73;3.53;;;16.90;40.60;;;;;;5051023;28;20128;-63
2022/04/18 18:13:45;;;;;;;10.10;2.95;;;16.90;40.70;;;;;;5053266;28;20033;-63
2022/04/18 18:16:10;;;;;;;8.30;3.38;;;16.80;40.70;;;;;;5053664;28;20033;-63
2022/04/18 18:18:37;;;;;;;8.32;3.45;;;16.80;40.90;;;;;;5053153;28;20045;-64
2022/04/18 18:21:05;;;;;;;6.35;3.67;;;16.80;40.90;;;;;;5053372;28;20036;-66
2022/04/18 18:23:31;;;;;;;8.95;3.45;;;16.80;40.80;;;;;;5053332;28;20037;-69
2022/04/18 18:25:57;;;;;;;14.30;3.97;;;16.80;40.80;;;;;;5053098;28;20478;-68
2022/04/18 18:28:23;;;;;;;13.05;4.68;;;16.80;40.90;;;;;;5052901;28;20044;-64
2022/04/18 18:30:49;;;;;;;8.45;4.45;;;16.80;40.80;;;;;;5052872;28;20035;-64
2022/04/18 18:33:14;;;;;;;8.88;4.15;;;16.70;40.70;;;;;;5053379;28;20090;-63
2022/04/18 18:35:48;;;;;;;9.20;3.80;;;16.70;42.00;;;;;;5053193;28;20518;-64
2022/04/18 18:38:15;;;;;;;10.80;4.32;;;16.70;42.20;;;;;;5053280;28;20048;-64
2022/04/18 18:40:41;;;;;;;7.65;3.90;;;16.60;42.60;;;;;;5050868;28;20037;-64
2022/04/18 18:43:10;;;;;;;8.88;4.28;;;16.60;43.60;;;;;;5050288;28;20494;-64
2022/04/18 18:45:35;;;;;;;9.85;3.50;;;16.50;43.90;;;;;;5050563;28;20037;-64
2022/04/18 18:48:05;;;;;;;7.45;3.05;;;16.50;43.80;;;;;;5052608;28;20044;-63
2022/04/18 18:53:16;;;;;;;8.25;4.32;;;16.50;43.30;;;;;;5052741;28;20056;-64
2022/04/18 18:55:44;;;;;;;9.68;3.90;;;16.50;44.10;;;;;;5052854;28;20036;-63
2022/04/18 18:58:11;;;;;;;14.85;3.72;;;16.50;44.00;;;;;;5052896;28;20045;-63
2022/04/18 19:00:37;;;;;;;8.23;3.70;;;16.50;44.40;;;;;;5052749;28;20033;-64
2022/04/18 19:03:03;;;;;;;9.15;3.50;;;16.50;44.50;;;;;;5052680;28;20044;-64
2022/04/18 19:05:30;;;;;;;6.57;3.58;;;16.50;44.70;;;;;;5052844;28;20426;-69
2022/04/18 19:07:56;;;;;;;8.10;3.30;;;16.50;44.50;;;;;;5052602;28;20044;-63
2022/04/18 19:10:24;;;;;;;5.85;3.28;;;16.50;43.40;;;;;;5052704;28;20033;-63
2022/04/18 19:12:50;;;;;;;7.05;3.33;;;16.50;43.40;;;;;;5053223;28;20029;-69
2022/04/18 19:15:17;;;;;;;5.25;3.53;;;16.50;43.40;;;;;;5052903;28;20037;-63
2022/04/18 19:28:41;;;;;;;14.23;6.32;;;16.50;42.50;;;;;;5052617;28;20052;-64
2022/04/18 19:31:07;;;;;;;10.32;7.07;;;16.50;42.20;;;;;;5052627;28;20116;-63
2022/04/18 19:33:33;;;;;;;19.88;6.75;;;16.50;42.40;;;;;;5052149;28;20098;-63
2022/04/18 19:35:59;;;;;;;10.15;7.00;;;16.50;43.60;;;;;;5052788;28;20051;-64
2022/04/18 19:38:25;;;;;;;9.50;6.53;;;16.40;43.90;;;;;;5052648;28;20486;-63
2022/04/18 19:40:51;;;;;;;12.32;6.78;;;16.40;44.60;;;;;;5052083;28;20478;-64
2022/04/18 19:43:17;;;;;;;11.63;7.70;;;16.40;44.60;;;;;;5055801;28;20068;-63
2022/04/18 19:45:43;;;;;;;10.82;7.10;;;16.40;45.00;;;;;;5056598;28;20033;-70
2022/04/18 19:48:11;;;;;;;11.10;6.38;;;16.40;45.30;;;;;;5056094;28;20041;-63
2022/04/18 19:50:41;;;;;;;12.07;6.45;;;16.30;44.60;;;;;;5056205;28;20033;-64
2022/04/18 19:53:07;;;;;;;13.40;6.70;;;16.30;44.80;;;;;;5056056;28;20044;-64
2022/04/18 19:55:33;;;;;;;14.32;6.07;;;16.30;45.00;;;;;;5055748;28;20033;-63
2022/04/18 19:57:59;;;;;;;16.67;6.22;;;16.30;44.80;;;;;;5056263;28;20367;-64
2022/04/18 20:00:28;;;;;;;11.35;6.60;;;16.30;44.40;;;;;;5056152;28;20032;-64
2022/04/18 20:02:55;;;;;;;12.70;6.40;;;16.30;44.10;;;;;;5055763;28;20133;-65
2022/04/18 20:05:21;;;;;;;11.93;7.00;;;16.30;43.80;;;;;;5056008;28;20555;-64
2022/04/18 20:07:46;;;;;;;13.55;6.50;;;16.20;44.10;;;;;;5056092;28;20061;-63
2022/04/18 20:10:12;;;;;;;11.10;4.63;;;16.20;43.80;;;;;;5055924;28;20036;-63
2022/04/18 20:12:40;;;;;;;9.75;4.72;;;16.20;43.60;;;;;;5056113;28;20040;-63
2022/04/18 20:15:07;;;;;;;9.15;4.32;;;16.20;43.60;;;;;;5055951;28;20036;-64
2022/04/18 20:17:35;;;;;;;4.88;3.22;;;16.10;43.60;;;;;;5055241;28;20029;-64
2022/04/18 20:20:02;;;;;;;8.40;3.90;;;16.10;43.10;;;;;;5055573;28;20396;-64
2022/04/18 20:22:27;;;;;;;7.68;3.55;;;16.10;41.90;;;;;;5055570;28;20041;-64
2022/04/18 20:24:53;;;;;;;4.00;2.80;;;16.10;41.00;;;;;;5055477;28;20036;-63
2022/04/18 20:27:19;;;;;;;4.45;3.03;;;16.10;40.00;;;;;;5055928;28;20036;-63
2022/04/18 20:29:45;;;;;;;7.70;2.80;;;16.10;39.50;;;;;;5055390;28;20025;-65
2022/04/18 20:32:11;;;;;;;7.22;3.00;;;16.10;39.30;;;;;;5055374;28;20033;-63
2022/04/18 20:34:36;;;;;;;5.40;3.15;;;16.10;39.30;;;;;;5055369;28;20078;-69
2022/04/18 20:37:02;;;;;;;6.82;3.55;;;16.10;39.60;;;;;;5055537;28;20040;-63
2022/04/18 20:39:28;;;;;;;6.18;3.20;;;16.10;39.90;;;;;;5055291;28;20029;-68
2022/04/18 20:41:54;;;;;;;5.95;3.58;;;16.10;40.20;;;;;;5054835;28;20033;-64
2022/04/18 20:44:20;;;;;;;6.30;3.10;;;16.10;40.80;;;;;;5055066;28;20384;-63
2022/04/18 20:46:45;;;;;;;5.13;2.65;;;16.10;41.60;;;;;;5055451;28;20545;-64
2022/04/18 20:49:13;;;;;;;5.63;2.70;;;16.10;42.30;;;;;;5055103;28;20108;-63
2022/04/18 20:51:39;;;;;;;4.57;2.83;;;16.10;43.70;;;;;;5054941;28;20120;-63
2022/04/18 20:59:33;;;;;;;5.13;2.05;;;16.00;44.40;;;;;;5055024;28;20036;-71
2022/04/18 21:01:58;;;;;;;4.68;2.08;;;16.00;44.80;;;;;;5054757;28;20062;-69
2022/04/18 21:04:24;;;;;;;6.13;2.00;;;16.00;45.70;;;;;;5054871;28;20032;-62
2022/04/18 21:06:54;;;;;;;4.35;2.03;;;16.00;45.90;;;;;;5054769;28;20025;-65
2022/04/18 21:09:19;;;;;;;3.40;2.05;;;16.00;46.50;;;;;;5054203;28;20065;-63
2022/04/18 21:11:46;;;;;;;7.15;2.10;;;16.00;46.80;;;;;;5054638;28;20063;-64
2022/04/18 21:14:12;;;;;;;5.10;1.98;;;16.00;47.50;;;;;;5054534;28;20425;-63
2022/04/18 21:16:38;;;;;;;4.10;2.10;;;15.90;48.20;;;;;;5053839;28;20021;-64
2022/04/18 21:19:04;;;;;;;2.75;1.70;;;15.90;48.00;;;;;;5053293;28;20110;-64
2022/04/18 21:21:30;;;;;;;5.15;2.05;;;15.90;48.10;;;;;;5050405;28;20029;-63
2022/04/18 21:23:56;;;;;;;3.17;2.10;;;16.00;47.70;;;;;;5050613;28;20475;-63
2022/04/18 21:26:22;;;;;;;3.15;2.00;;;16.00;47.80;;;;;;5052689;28;20028;-63
2022/04/18 21:28:47;;;;;;;5.32;2.38;;;15.90;47.80;;;;;;5054307;28;20037;-63
2022/04/18 21:31:15;;;;;;;5.32;2.00;;;15.90;48.20;;;;;;5054324;28;20116;-65
2022/04/18 21:33:42;;;;;;;4.60;1.92;;;15.90;48.20;;;;;;5053947;28;20059;-65
2022/04/18 21:36:10;;;;;;;4.55;1.67;;;15.90;48.30;;;;;;5053794;28;20079;-63
2022/04/18 21:38:36;;;;;;;4.40;1.90;;;15.90;48.10;;;;;;5053951;28;20064;-63
2022/04/18 21:41:03;;;;;;;3.63;1.73;;;15.90;47.90;;;;;;5053618;28;20482;-63
2022/04/18 21:43:31;;;;;;;3.03;1.83;;;15.90;48.00;;;;;;5053593;28;20473;-63
2022/04/18 21:45:57;;;;;;;3.75;1.92;;;15.80;48.70;;;;;;5054279;28;20025;-64
2022/04/18 21:48:23;;;;;;;3.35;1.80;;;15.80;49.10;;;;;;5053859;28;20045;-63
2022/04/18 21:50:50;;;;;;;2.92;1.55;;;15.70;49.60;;;;;;5052945;28;20090;-63
2022/04/18 21:53:16;;;;;;;6.82;1.83;;;15.70;49.50;;;;;;5053699;28;20107;-63
2022/04/18 21:55:42;;;;;;;3.70;1.70;;;15.70;50.10;;;;;;5053624;28;20171;-63
2022/04/18 21:58:08;;;;;;;5.03;2.20;;;15.60;49.60;;;;;;5053344;28;20037;-62
2022/04/18 22:01:01;;;;;;;5.97;2.30;;;15.60;50.00;;;;;;5052915;28;20033;-63
2022/04/18 22:03:26;;;;;;;;;;;15.60;50.30;;;;;;5052806;28;20037;-63
2022/04/18 22:05:52;;;;;;;3.03;1.80;;;15.60;50.00;;;;;;5052048;28;20254;-63
2022/04/18 22:08:18;;;;;;;7.60;1.80;;;15.50;49.70;;;;;;5053420;28;20037;-63
2022/04/18 22:10:44;;;;;;;4.15;2.00;;;15.50;49.80;;;;;;5053210;28;20033;-63
2022/04/18 22:13:09;;;;;;;11.10;2.03;;;15.50;49.20;;;;;;5053086;28;20033;-63
2022/04/18 22:15:35;;;;;;;2.38;1.73;;;15.50;48.00;;;;;;5053176;28;20048;-63
2022/04/18 22:18:02;;;;;;;5.43;1.70;;;15.50;47.30;;;;;;5052958;28;20084;-67
2022/04/18 22:26:06;;;;;;;3.40;1.55;;;15.40;47.80;;;;;;5053354;28;20607;-64
2022/04/18 22:28:32;;;;;;;2.92;1.75;;;15.40;48.00;;;;;;5052872;28;20059;-63
2022/04/18 22:30:58;;;;;;;4.47;1.63;;;15.40;47.30;;;;;;5052958;28;20037;-63
2022/04/18 22:33:24;;;;;;;2.58;1.77;;;15.40;47.70;;;;;;5052765;28;20048;-63
2022/04/18 22:35:50;;;;;;;4.68;1.83;;;15.40;47.80;;;;;;5052424;28;20091;-63
2022/04/18 22:38:16;;;;;;;5.88;1.75;;;15.30;47.50;;;;;;5052571;28;20041;-63
2022/04/18 22:40:42;;;;;;;3.70;1.80;;;15.30;47.60;;;;;;5052329;28;20060;-63
2022/04/18 22:43:09;;;;;;;4.38;2.40;;;15.30;48.10;;;;;;5052227;28;20489;-64
2022/04/18 22:45:35;;;;;;;5.95;2.20;;;15.30;47.40;;;;;;5053107;28;20112;-63
2022/04/18 22:48:01;;;;;;;5.05;2.78;;;15.30;47.60;;;;;;5052134;28;20605;-64
2022/04/18 22:50:27;;;;;;;4.78;2.30;;;15.20;47.70;;;;;;5052281;28;20060;-63
2022/04/18 22:52:53;;;;;;;6.32;2.30;;;15.20;47.10;;;;;;5053085;28;20073;-64
2022/04/18 22:55:19;;;;;;;5.38;1.90;;;15.30;47.10;;;;;;5052940;28;20028;-66
2022/04/18 22:57:44;;;;;;;5.65;2.00;;;15.20;47.50;;;;;;5052898;28;20090;-69
2022/04/18 23:00:17;;;;;;;3.80;2.28;;;15.20;48.10;;;;;;5052820;28;20136;-63
2022/04/18 23:02:43;;;;;;;;;;;15.20;48.10;;;;;;5052933;28;20461;-64
2022/04/18 23:07:53;;;;;;;3.85;1.80;;;15.20;47.40;;;;;;5052656;28;20112;-64
2022/04/18 23:10:19;;;;;;;5.70;1.88;;;15.20;46.70;;;;;;5052504;28;20033;-63
2022/04/18 23:12:50;;;;;;;4.90;2.30;;;15.20;47.00;;;;;;5052287;28;20033;-63
2022/04/18 23:15:16;;;;;;;5.32;2.22;;;15.20;47.30;;;;;;5052279;28;20075;-63
2022/04/18 23:17:43;;;;;;;3.35;2.20;;;15.20;46.80;;;;;;5056850;28;20072;-63
2022/04/18 23:20:12;;;;;;;6.20;2.10;;;15.10;47.20;;;;;;5059059;28;20037;-65
2022/04/18 23:22:37;;;;;;;5.95;2.40;;;15.10;47.60;;;;;;5058564;28;20132;-69
2022/04/18 23:25:06;;;;;;;3.05;1.80;;;15.10;47.50;;;;;;5059178;28;20112;-63
2022/04/18 23:27:32;;;;;;;4.40;2.22;;;15.10;47.40;;;;;;5059418;28;20041;-63
2022/04/18 23:29:57;;;;;;;6.18;1.90;;;15.00;47.50;;;;;;5059011;28;20112;-64
2022/04/18 23:32:23;;;;;;;4.18;2.13;;;15.00;48.30;;;;;;5058857;28;20041;-64
2022/04/18 23:34:49;;;;;;;7.32;2.10;;;15.00;48.80;;;;;;5059000;28;20436;-63
2022/04/18 23:37:14;;;;;;;7.78;2.40;;;15.00;48.50;;;;;;5059088;28;20401;-63
2022/04/18 23:42:24;;;;;;;5.30;2.13;;;15.00;48.50;;;;;;5058917;28;20195;-68
2022/04/18 23:44:50;;;;;;;4.35;2.25;;;15.00;48.30;;;;;;5058901;28;20525;-63
2022/04/18 23:47:15;;;;;;;3.67;2.10;;;14.90;48.40;;;;;;5056206;28;20397;-64
2022/04/18 23:49:41;;;;;;;6.00;2.50;;;14.90;48.50;;;;;;5056071;28;20493;-64
2022/04/18 23:52:07;;;;;;;3.17;2.05;;;14.90;49.10;;;;;;5058153;28;20032;-69
2022/04/18 23:54:33;;;;;;;5.47;2.30;;;14.90;48.80;;;;;;5058732;28;20037;-64
2022/04/18 23:56:58;;;;;;;3.58;1.90;;;14.90;49.40;;;;;;5058523;28;20108;-63
2022/04/18 23:59:24;;;;;;;5.25;2.22;;;14.80;49.40;;;;;;5058725;28;20040;-63
